createdAt,value
2018-04-14T00:00:37.805Z,12.34
2018-04-14T00:01:37.900Z,12.44
2018-04-14T00:02:37.998Z,12.37
2018-04-14T00:03:38.093Z,12.39
2018-04-14T00:04:38.186Z,12.42
2018-04-14T00:05:38.283Z,12.44
2018-04-14T00:06:38.375Z,12.33
2018-04-14T00:07:38.473Z,12.37
2018-04-14T00:08:38.571Z,12.41
2018-04-14T00:09:38.669Z,12.38
2018-04-14T00:10:38.764Z,12.45
2018-04-14T00:11:38.857Z,12.37
2018-04-14T00:12:38.950Z,12.38
2018-04-14T00:13:39.044Z,12.49
2018-04-14T00:14:39.139Z,12.49
2018-04-14T00:15:39.239Z,12.51
2018-04-14T00:16:39.333Z,12.44
2018-04-14T00:17:39.428Z,12.37
2018-04-14T00:18:39.524Z,12.52
2018-04-14T00:19:39.625Z,12.52
2018-04-14T00:20:39.718Z,12.45
2018-04-14T00:21:39.812Z,12.37
2018-04-14T00:22:39.928Z,12.39
2018-04-14T00:23:40.022Z,12.39
2018-04-14T00:24:40.117Z,12.34
2018-04-14T00:25:40.213Z,12.37
2018-04-14T00:26:40.308Z,12.34
2018-04-14T00:27:40.401Z,12.38
2018-04-14T00:28:40.493Z,12.33
2018-04-14T00:29:40.592Z,12.45
2018-04-14T00:30:40.688Z,12.39
2018-04-14T00:31:40.782Z,12.41
2018-04-14T00:32:40.878Z,12.34
2018-04-14T00:33:40.976Z,12.42
2018-04-14T00:34:41.063Z,12.45
2018-04-14T00:35:41.160Z,12.42
2018-04-14T00:36:41.254Z,12.48
2018-04-14T00:37:41.350Z,12.30
2018-04-14T00:38:41.444Z,12.33
2018-04-14T00:39:41.550Z,12.42
2018-04-14T00:40:41.631Z,12.38
2018-04-14T00:41:41.727Z,12.42
2018-04-14T00:42:41.825Z,12.33
2018-04-14T00:43:41.920Z,12.27
2018-04-14T00:44:42.013Z,12.39
2018-04-14T00:45:42.113Z,12.42
2018-04-14T00:46:42.207Z,12.34
2018-04-14T00:47:42.300Z,12.34
2018-04-14T00:48:42.397Z,12.42
2018-04-14T00:49:42.488Z,12.27
2018-04-14T00:50:42.585Z,12.34
2018-04-14T00:51:42.677Z,12.27
2018-04-14T00:52:42.772Z,12.39
2018-04-14T00:53:42.869Z,12.41
2018-04-14T00:54:42.966Z,12.41
2018-04-14T00:55:43.076Z,12.38
2018-04-14T00:56:43.168Z,12.34
2018-04-14T00:57:43.268Z,12.42
2018-04-14T00:58:43.359Z,12.30
2018-04-14T00:59:43.454Z,12.33
2018-04-14T01:00:43.546Z,12.38
2018-04-14T01:01:43.640Z,12.29
2018-04-14T01:02:43.740Z,12.16
2018-04-14T01:03:43.831Z,12.31
2018-04-14T01:04:43.926Z,12.27
2018-04-14T01:05:44.017Z,12.21
2018-04-14T01:06:44.115Z,12.27
2018-04-14T01:07:44.215Z,12.27
2018-04-14T01:08:44.304Z,12.31
2018-04-14T01:09:44.399Z,12.38
2018-04-14T01:10:44.493Z,12.31
2018-04-14T01:11:44.587Z,12.38
2018-04-14T01:12:44.679Z,12.39
2018-04-14T01:13:44.774Z,12.37
2018-04-14T01:14:44.869Z,12.30
2018-04-14T01:15:44.963Z,12.45
2018-04-14T01:16:45.060Z,12.41
2018-04-14T01:17:45.153Z,12.37
2018-04-14T01:18:45.254Z,12.31
2018-04-14T01:19:45.344Z,12.30
2018-04-14T01:20:45.438Z,12.29
2018-04-14T01:21:45.534Z,12.29
2018-04-14T01:22:45.655Z,12.21
2018-04-14T01:23:45.731Z,12.24
2018-04-14T01:24:45.821Z,12.34
2018-04-14T01:25:45.916Z,12.27
2018-04-14T01:26:46.011Z,12.26
2018-04-14T01:27:46.104Z,12.26
2018-04-14T01:28:46.200Z,12.26
2018-04-14T01:29:46.293Z,12.27
2018-04-14T01:30:46.393Z,12.27
2018-04-14T01:31:46.487Z,12.21
2018-04-14T01:32:46.584Z,12.19
2018-04-14T01:33:46.676Z,12.21
2018-04-14T01:34:46.769Z,12.27
2018-04-14T01:35:46.863Z,12.27
2018-04-14T01:36:46.952Z,12.16
2018-04-14T01:37:47.055Z,12.19
2018-04-14T01:38:47.151Z,12.16
2018-04-14T01:39:47.245Z,12.13
2018-04-14T01:40:47.338Z,12.19
2018-04-14T01:41:47.455Z,12.15
2018-04-14T01:42:47.553Z,12.11
2018-04-14T01:43:47.647Z,12.11
2018-04-14T01:44:47.742Z,12.09
2018-04-14T01:45:47.834Z,11.97
2018-04-14T01:46:47.929Z,12.09
2018-04-14T01:47:48.024Z,12.02
2018-04-14T01:48:48.118Z,12.06
2018-04-14T01:49:48.215Z,12.04
2018-04-14T01:50:48.306Z,12.09
2018-04-14T01:51:48.399Z,11.99
2018-04-14T01:52:48.494Z,11.99
2018-04-14T01:53:48.589Z,12.05
2018-04-14T01:54:48.682Z,11.97
2018-04-14T01:55:48.779Z,11.96
2018-04-14T01:56:48.872Z,11.97
2018-04-14T01:57:48.971Z,11.97
2018-04-14T01:58:49.065Z,12.04
2018-04-14T01:59:49.157Z,12.02
2018-04-14T02:00:49.254Z,11.96
2018-04-14T02:01:49.348Z,12.04
2018-04-14T02:02:49.444Z,11.94
2018-04-14T02:03:49.541Z,12.02
2018-04-14T02:04:49.635Z,11.82
2018-04-14T02:05:49.729Z,11.80
2018-04-14T02:06:49.820Z,11.77
2018-04-14T02:07:49.915Z,11.75
2018-04-14T02:08:50.009Z,11.65
2018-04-14T02:09:50.147Z,11.62
2018-04-14T02:10:50.198Z,11.41
2018-04-14T02:11:50.295Z,11.43
2018-04-14T02:12:50.387Z,11.46
2018-04-14T02:13:50.484Z,11.50
2018-04-14T02:14:50.576Z,11.38
2018-04-14T02:15:50.673Z,11.36
2018-04-14T02:16:50.765Z,11.35
2018-04-14T02:17:50.860Z,11.31
2018-04-14T02:18:50.960Z,11.29
2018-04-14T02:19:51.049Z,11.32
2018-04-14T02:20:51.146Z,11.17
2018-04-14T02:21:51.234Z,11.20
2018-04-14T02:22:51.327Z,11.20
2018-04-14T02:23:51.420Z,11.28
2018-04-14T02:24:51.516Z,11.20
2018-04-14T02:25:51.607Z,11.10
2018-04-14T02:26:51.704Z,11.10
2018-04-14T02:27:51.798Z,10.99
2018-04-14T02:28:51.891Z,11.09
2018-04-14T02:29:51.985Z,10.95
2018-04-14T02:30:52.079Z,11.01
2018-04-14T02:31:52.176Z,10.89
2018-04-14T02:32:52.269Z,10.91
2018-04-14T02:33:52.362Z,10.80
2018-04-14T02:34:52.453Z,10.83
2018-04-14T02:35:52.544Z,10.76
2018-04-14T02:36:52.639Z,10.74
2018-04-14T02:37:52.743Z,10.77
2018-04-14T02:38:52.825Z,10.73
2018-04-14T02:39:52.922Z,10.68
2018-04-14T02:40:53.039Z,10.70
2018-04-14T02:41:53.122Z,10.68
2018-04-14T02:42:53.240Z,10.70
2018-04-14T02:43:53.243Z,10.59
2018-04-14T02:44:53.343Z,10.56
2018-04-14T02:45:53.623Z,10.51
2018-04-14T02:46:53.550Z,10.39
2018-04-14T02:47:53.756Z,10.47
2018-04-14T02:48:53.787Z,10.46
2018-04-14T02:49:53.895Z,10.42
2018-04-14T02:50:54.063Z,10.30
2018-04-14T02:51:54.234Z,10.19
2018-04-14T02:52:54.250Z,10.22
2018-04-14T02:53:54.428Z,10.28
2018-04-14T02:54:54.403Z,10.33
2018-04-14T02:55:54.553Z,10.33
2018-04-14T02:56:54.637Z,10.25
2018-04-14T02:57:54.818Z,10.24
2018-04-14T02:58:54.838Z,10.22
2018-04-14T02:59:54.955Z,10.17
2018-04-14T03:00:55.126Z,10.17
2018-04-14T03:01:55.123Z,10.19
2018-04-14T03:02:55.223Z,10.10
2018-04-14T03:03:55.309Z,10.06
2018-04-14T03:04:55.727Z,9.97
2018-04-14T03:05:55.654Z,9.96
2018-04-14T03:06:55.598Z,9.96
2018-04-14T03:07:55.824Z,9.97
2018-04-14T03:08:55.962Z,9.96
2018-04-14T03:09:55.951Z,10.03
2018-04-14T03:10:55.943Z,10.00
2018-04-14T03:11:56.104Z,9.96
2018-04-14T03:12:56.097Z,9.94
2018-04-14T03:13:56.195Z,9.96
2018-04-14T03:14:56.307Z,9.93
2018-04-14T03:15:56.384Z,9.91
2018-04-14T03:16:56.573Z,9.89
2018-04-14T03:17:56.662Z,9.96
2018-04-14T03:18:56.630Z,9.94
2018-04-14T03:19:56.772Z,9.89
2018-04-14T03:20:56.870Z,9.83
2018-04-14T03:21:56.983Z,9.79
2018-04-14T03:22:57.193Z,9.85
2018-04-14T03:23:57.162Z,9.89
2018-04-14T03:24:57.258Z,9.86
2018-04-14T03:25:57.350Z,9.79
2018-04-14T03:26:57.586Z,9.88
2018-04-14T03:27:57.589Z,9.83
2018-04-14T03:28:57.708Z,9.81
2018-04-14T03:29:57.761Z,9.71
2018-04-14T03:30:57.883Z,9.82
2018-04-14T03:31:57.995Z,9.82
2018-04-14T03:32:58.110Z,9.78
2018-04-14T03:33:58.243Z,9.66
2018-04-14T03:34:58.345Z,9.63
2018-04-14T03:35:58.450Z,9.60
2018-04-14T03:36:58.549Z,9.66
2018-04-14T03:37:58.669Z,9.56
2018-04-14T03:38:58.802Z,9.68
2018-04-14T03:39:59.044Z,9.61
2018-04-14T03:40:59.066Z,9.63
2018-04-14T03:41:59.153Z,9.58
2018-04-14T03:42:59.275Z,9.57
2018-04-14T03:43:59.366Z,9.56
2018-04-14T03:44:59.457Z,9.52
2018-04-14T03:45:59.535Z,9.45
2018-04-14T03:46:59.642Z,9.53
2018-04-14T03:47:59.809Z,9.49
2018-04-14T03:48:59.918Z,9.57
2018-04-14T03:50:00.011Z,9.56
2018-04-14T03:51:00.150Z,9.53
2018-04-14T03:52:00.233Z,9.52
2018-04-14T03:53:00.327Z,9.56
2018-04-14T03:54:00.424Z,9.43
2018-04-14T03:55:00.522Z,9.48
2018-04-14T03:56:00.626Z,9.58
2018-04-14T03:57:00.741Z,9.57
2018-04-14T03:58:00.827Z,9.58
2018-04-14T03:59:00.929Z,9.52
2018-04-14T04:00:01.031Z,9.58
2018-04-14T04:01:01.163Z,9.53
2018-04-14T04:02:01.248Z,9.57
2018-04-14T04:03:01.352Z,9.61
2018-04-14T04:04:01.451Z,9.57
2018-04-14T04:05:01.545Z,9.63
2018-04-14T04:06:01.704Z,9.56
2018-04-14T04:07:01.662Z,9.58
2018-04-14T04:08:01.774Z,9.61
2018-04-14T04:09:01.860Z,9.58
2018-04-14T04:10:01.941Z,9.68
2018-04-14T04:11:02.053Z,9.64
2018-04-14T04:12:02.119Z,9.56
2018-04-14T04:13:02.235Z,9.49
2018-04-14T04:14:02.333Z,9.46
2018-04-14T04:15:02.441Z,9.60
2018-04-14T04:16:02.535Z,9.57
2018-04-14T04:17:02.621Z,9.64
2018-04-14T04:18:02.724Z,9.57
2018-04-14T04:19:02.805Z,9.57
2018-04-14T04:20:02.902Z,9.68
2018-04-14T04:21:02.986Z,9.79
2018-04-14T04:22:03.154Z,9.70
2018-04-14T04:23:03.142Z,9.71
2018-04-14T04:24:03.223Z,9.71
2018-04-14T04:25:03.341Z,9.82
2018-04-14T04:26:03.451Z,9.76
2018-04-14T04:27:03.568Z,9.86
2018-04-14T04:28:03.674Z,9.82
2018-04-14T04:29:03.783Z,9.83
2018-04-14T04:30:03.862Z,9.75
2018-04-14T04:31:03.973Z,9.64
2018-04-14T04:32:04.163Z,9.76
2018-04-14T04:33:04.116Z,9.73
2018-04-14T04:34:04.805Z,9.88
2018-04-14T04:35:04.245Z,9.93
2018-04-14T04:36:04.321Z,9.83
2018-04-14T04:37:04.451Z,9.99
2018-04-14T04:38:04.554Z,9.99
2018-04-14T04:39:04.672Z,9.97
2018-04-14T04:40:04.749Z,9.99
2018-04-14T04:41:04.883Z,10.03
2018-04-14T04:42:04.943Z,9.93
2018-04-14T04:43:05.060Z,10.01
2018-04-14T04:44:05.140Z,10.00
2018-04-14T04:45:05.224Z,9.96
2018-04-14T04:46:05.308Z,9.99
2018-04-14T04:47:05.411Z,10.00
2018-04-14T04:48:05.496Z,10.01
2018-04-14T04:49:05.592Z,9.93
2018-04-14T04:50:05.682Z,9.89
2018-04-14T04:51:05.861Z,10.06
2018-04-14T04:52:05.892Z,10.03
2018-04-14T04:53:05.882Z,10.07
2018-04-14T04:54:05.973Z,9.99
2018-04-14T04:55:06.071Z,10.10
2018-04-14T04:56:06.163Z,10.01
2018-04-14T04:57:06.261Z,10.00
2018-04-14T04:58:06.350Z,10.01
2018-04-14T04:59:06.445Z,10.09
2018-04-14T05:00:06.545Z,10.06
2018-04-14T05:01:06.640Z,10.03
2018-04-14T05:02:06.734Z,10.01
2018-04-14T05:03:06.828Z,9.99
2018-04-14T05:04:06.925Z,9.99
2018-04-14T05:05:07.021Z,9.97
2018-04-14T05:06:07.114Z,10.01
2018-04-14T05:07:07.217Z,10.04
2018-04-14T05:08:07.300Z,9.99
2018-04-14T05:09:07.393Z,10.00
2018-04-14T05:10:07.519Z,10.04
2018-04-14T05:11:07.584Z,9.94
2018-04-14T05:12:07.675Z,10.00
2018-04-14T05:13:07.770Z,9.93
2018-04-14T05:14:07.861Z,9.89
2018-04-14T05:15:07.950Z,10.00
2018-04-14T05:16:08.048Z,9.94
2018-04-14T05:17:08.142Z,9.94
2018-04-14T05:18:08.235Z,10.00
2018-04-14T05:19:08.331Z,10.00
2018-04-14T05:20:08.424Z,9.94
2018-04-14T05:21:08.517Z,10.00
2018-04-14T05:22:08.622Z,9.97
2018-04-14T05:23:08.722Z,9.99
2018-04-14T05:24:08.813Z,10.01
2018-04-14T05:25:08.902Z,10.00
2018-04-14T05:26:08.997Z,9.96
2018-04-14T05:27:09.094Z,10.03
2018-04-14T05:28:09.187Z,9.99
2018-04-14T05:29:09.283Z,9.94
2018-04-14T05:30:09.378Z,9.91
2018-04-14T05:31:09.469Z,9.86
2018-04-14T05:32:09.588Z,9.89
2018-04-14T05:33:09.698Z,9.86
2018-04-14T05:34:09.792Z,9.89
2018-04-14T05:35:09.888Z,9.86
2018-04-14T05:36:09.984Z,9.97
2018-04-14T05:37:10.079Z,9.94
2018-04-14T05:38:10.174Z,9.93
2018-04-14T05:39:10.267Z,10.00
2018-04-14T05:40:10.350Z,9.96
2018-04-14T05:41:10.496Z,9.86
2018-04-14T05:42:10.551Z,9.85
2018-04-14T05:43:10.654Z,9.81
2018-04-14T05:44:10.743Z,9.83
2018-04-14T05:45:10.838Z,9.86
2018-04-14T05:46:10.934Z,9.78
2018-04-14T05:47:11.029Z,9.82
2018-04-14T05:48:11.122Z,9.88
2018-04-14T05:49:11.214Z,9.91
2018-04-14T05:50:11.308Z,10.00
2018-04-14T05:51:11.402Z,10.00
2018-04-14T05:52:11.497Z,10.03
2018-04-14T05:53:11.595Z,10.00
2018-04-14T05:54:11.686Z,9.96
2018-04-14T05:55:11.778Z,9.99
2018-04-14T05:56:11.873Z,10.01
2018-04-14T05:57:11.968Z,9.89
2018-04-14T05:58:12.061Z,10.06
2018-04-14T05:59:12.154Z,10.04
2018-04-14T06:00:12.278Z,10.03
2018-04-14T06:01:12.341Z,10.14
2018-04-14T06:02:12.433Z,10.14
2018-04-14T06:03:12.532Z,10.10
2018-04-14T06:04:12.622Z,10.18
2018-04-14T06:05:12.719Z,10.30
2018-04-14T06:06:12.814Z,10.39
2018-04-14T06:07:13.488Z,10.53
2018-04-14T06:08:12.971Z,10.58
2018-04-14T06:09:13.069Z,10.84
2018-04-14T06:10:13.155Z,11.09
2018-04-14T06:11:13.254Z,11.14
2018-04-14T06:12:13.360Z,11.17
2018-04-14T06:13:13.451Z,11.41
2018-04-14T06:14:13.546Z,11.85
2018-04-14T06:15:13.640Z,12.31
2018-04-14T06:16:13.736Z,12.51
2018-04-14T06:17:13.827Z,12.85
2018-04-14T06:18:13.923Z,13.11
2018-04-14T06:19:14.009Z,13.40
2018-04-14T06:20:14.101Z,13.54
2018-04-14T06:21:14.201Z,13.84
2018-04-14T06:22:14.354Z,14.06
2018-04-14T06:23:14.393Z,14.25
2018-04-14T06:24:14.488Z,14.34
2018-04-14T06:25:14.586Z,14.52
2018-04-14T06:26:14.682Z,14.62
2018-04-14T06:27:14.776Z,14.93
2018-04-14T06:28:14.906Z,14.99
2018-04-14T06:29:15.020Z,15.08
2018-04-14T06:30:15.102Z,15.23
2018-04-14T06:31:15.214Z,15.42
2018-04-14T06:32:15.311Z,15.52
2018-04-14T06:33:15.404Z,15.70
2018-04-14T06:34:15.499Z,15.84
2018-04-14T06:35:15.595Z,15.92
2018-04-14T06:36:15.692Z,15.99
2018-04-14T06:37:15.789Z,16.26
2018-04-14T06:38:15.888Z,16.31
2018-04-14T06:39:16.000Z,16.48
2018-04-14T06:40:16.096Z,16.70
2018-04-14T06:41:16.203Z,16.78
2018-04-14T06:42:16.299Z,16.95
2018-04-14T06:43:16.395Z,17.00
2018-04-14T06:44:16.493Z,17.13
2018-04-14T06:45:16.593Z,17.22
2018-04-14T06:46:16.719Z,17.11
2018-04-14T06:47:16.808Z,17.29
2018-04-14T06:48:16.908Z,17.41
2018-04-14T06:49:17.007Z,17.25
2018-04-14T06:50:17.103Z,17.32
2018-04-14T06:51:17.193Z,17.35
2018-04-14T06:52:17.298Z,17.47
2018-04-14T06:53:17.422Z,17.35
2018-04-14T06:54:17.513Z,17.50
2018-04-14T06:55:17.606Z,17.62
2018-04-14T06:56:17.709Z,17.66
2018-04-14T06:57:17.812Z,17.71
2018-04-14T06:58:17.927Z,17.79
2018-04-14T06:59:18.089Z,17.87
2018-04-14T07:00:18.065Z,17.91
2018-04-14T07:01:18.175Z,17.92
2018-04-14T07:02:18.276Z,18.10
2018-04-14T07:03:18.375Z,18.00
2018-04-14T07:04:18.487Z,17.97
2018-04-14T07:05:18.574Z,17.78
2018-04-14T07:06:18.678Z,17.82
2018-04-14T07:07:18.771Z,17.82
2018-04-14T07:08:18.869Z,17.66
2018-04-14T07:09:18.969Z,17.55
2018-04-14T07:10:19.069Z,17.59
2018-04-14T07:11:19.164Z,17.40
2018-04-14T07:12:19.263Z,17.29
2018-04-14T07:13:19.362Z,17.35
2018-04-14T07:14:19.462Z,17.10
2018-04-14T07:15:19.562Z,16.99
2018-04-14T07:16:19.661Z,16.86
2018-04-14T07:17:19.763Z,16.81
2018-04-14T07:18:19.864Z,16.81
2018-04-14T07:19:19.963Z,16.92
2018-04-14T07:20:20.063Z,16.92
2018-04-14T07:21:20.165Z,16.96
2018-04-14T07:22:20.274Z,16.96
2018-04-14T07:23:20.372Z,16.95
2018-04-14T07:24:20.469Z,16.95
2018-04-14T07:25:20.568Z,16.86
2018-04-14T07:26:20.668Z,16.75
2018-04-14T07:27:20.775Z,16.58
2018-04-14T07:28:20.868Z,16.70
2018-04-14T07:29:20.971Z,16.67
2018-04-14T07:30:21.069Z,16.33
2018-04-14T07:31:21.172Z,16.27
2018-04-14T07:32:21.275Z,16.23
2018-04-14T07:33:21.372Z,16.09
2018-04-14T07:34:21.478Z,15.96
2018-04-14T07:35:21.581Z,16.01
2018-04-14T07:36:21.682Z,15.93
2018-04-14T07:37:21.780Z,15.92
2018-04-14T07:38:21.882Z,16.01
2018-04-14T07:39:21.980Z,15.94
2018-04-14T07:40:22.083Z,15.89
2018-04-14T07:41:22.187Z,15.76
2018-04-14T07:42:22.295Z,15.78
2018-04-14T07:43:22.391Z,15.88
2018-04-14T07:44:22.489Z,15.89
2018-04-14T07:45:22.589Z,15.93
2018-04-14T07:46:22.683Z,15.74
2018-04-14T07:47:22.785Z,15.79
2018-04-14T07:48:22.896Z,15.68
2018-04-14T07:49:22.995Z,15.42
2018-04-14T07:50:23.092Z,15.54
2018-04-14T07:51:23.186Z,15.38
2018-04-14T07:52:23.326Z,15.38
2018-04-14T07:53:23.327Z,15.27
2018-04-14T07:54:24.180Z,14.84
2018-04-14T07:55:23.636Z,15.06
2018-04-14T07:56:23.725Z,15.15
2018-04-14T07:57:23.721Z,15.31
2018-04-14T07:58:23.828Z,15.36
2018-04-14T07:59:23.974Z,15.45
2018-04-14T08:00:24.013Z,15.54
2018-04-14T08:01:24.153Z,15.59
2018-04-14T08:02:24.298Z,15.51
2018-04-14T08:03:24.310Z,15.63
2018-04-14T08:04:24.427Z,15.36
2018-04-14T08:05:24.590Z,15.48
2018-04-14T08:06:24.611Z,15.49
2018-04-14T08:07:24.740Z,15.56
2018-04-14T08:08:25.048Z,15.67
2018-04-14T08:09:24.898Z,15.46
2018-04-14T08:10:25.036Z,15.49
2018-04-14T08:11:25.257Z,15.61
2018-04-14T08:12:25.269Z,15.70
2018-04-14T08:13:25.360Z,15.72
2018-04-14T08:14:25.488Z,15.70
2018-04-14T08:15:25.577Z,15.79
2018-04-14T08:16:25.681Z,15.79
2018-04-14T08:17:25.824Z,15.85
2018-04-14T08:18:25.972Z,15.86
2018-04-14T08:19:26.088Z,15.82
2018-04-14T08:20:26.054Z,15.72
2018-04-14T08:21:26.158Z,15.68
2018-04-14T08:22:26.358Z,15.70
2018-04-14T08:23:26.251Z,15.63
2018-04-14T08:24:26.353Z,15.68
2018-04-14T08:25:26.454Z,15.76
2018-04-14T08:26:26.561Z,15.63
2018-04-14T08:27:26.691Z,15.78
2018-04-14T08:28:26.780Z,15.66
2018-04-14T08:29:26.873Z,15.84
2018-04-14T08:30:26.994Z,15.84
2018-04-14T08:31:27.116Z,15.85
2018-04-14T08:32:27.256Z,15.93
2018-04-14T08:33:27.222Z,15.93
2018-04-14T08:34:27.367Z,15.86
2018-04-14T08:35:27.460Z,15.89
2018-04-14T08:36:27.671Z,15.96
2018-04-14T08:37:27.749Z,16.16
2018-04-14T08:38:27.802Z,16.23
2018-04-14T08:39:27.941Z,16.23
2018-04-14T08:40:27.989Z,16.35
2018-04-14T08:41:27.983Z,16.49
2018-04-14T08:42:28.260Z,16.42
2018-04-14T08:43:28.275Z,16.48
2018-04-14T08:44:28.248Z,16.48
2018-04-14T08:45:28.360Z,16.58
2018-04-14T08:46:28.447Z,16.59
2018-04-14T08:47:28.554Z,16.60
2018-04-14T08:48:28.641Z,16.58
2018-04-14T08:49:28.724Z,16.58
2018-04-14T08:50:28.816Z,16.73
2018-04-14T08:51:28.970Z,16.75
2018-04-14T08:52:29.169Z,16.95
2018-04-14T08:53:29.134Z,17.03
2018-04-14T08:54:29.237Z,17.14
2018-04-14T08:55:29.347Z,17.14
2018-04-14T08:56:29.447Z,17.20
2018-04-14T08:57:29.536Z,17.08
2018-04-14T08:58:29.646Z,17.18
2018-04-14T08:59:29.777Z,17.32
2018-04-14T09:00:29.902Z,17.35
2018-04-14T09:01:30.007Z,17.48
2018-04-14T09:02:30.100Z,17.51
2018-04-14T09:03:30.197Z,17.71
2018-04-14T09:04:30.303Z,17.48
2018-04-14T09:05:30.520Z,17.53
2018-04-14T09:06:30.508Z,17.53
2018-04-14T09:07:30.596Z,17.41
2018-04-14T09:08:30.688Z,17.47
2018-04-14T09:09:30.857Z,17.40
2018-04-14T09:10:30.846Z,17.44
2018-04-14T09:11:30.960Z,17.59
2018-04-14T09:12:31.071Z,17.71
2018-04-14T09:13:31.304Z,17.63
2018-04-14T09:14:31.280Z,17.59
2018-04-14T09:15:31.375Z,17.59
2018-04-14T09:16:31.463Z,17.55
2018-04-14T09:17:31.550Z,17.67
2018-04-14T09:18:31.649Z,17.67
2018-04-14T09:19:31.748Z,17.81
2018-04-14T09:20:31.854Z,17.88
2018-04-14T09:21:31.942Z,18.03
2018-04-14T09:22:32.083Z,18.06
2018-04-14T09:23:32.170Z,18.10
2018-04-14T09:24:32.305Z,18.13
2018-04-14T09:25:32.402Z,18.07
2018-04-14T09:26:32.526Z,18.19
2018-04-14T09:27:32.622Z,18.10
2018-04-14T09:28:32.751Z,18.06
2018-04-14T09:29:32.860Z,18.17
2018-04-14T09:30:32.998Z,18.21
2018-04-14T09:31:33.086Z,18.15
2018-04-14T09:32:33.185Z,18.13
2018-04-14T09:33:33.367Z,18.22
2018-04-14T09:34:33.339Z,18.36
2018-04-14T09:35:33.451Z,18.39
2018-04-14T09:36:33.534Z,18.33
2018-04-14T09:37:33.646Z,18.33
2018-04-14T09:38:33.739Z,18.40
2018-04-14T09:39:33.825Z,18.19
2018-04-14T09:40:33.925Z,18.33
2018-04-14T09:41:34.025Z,18.36
2018-04-14T09:42:34.122Z,18.34
2018-04-14T09:43:34.229Z,18.40
2018-04-14T09:44:34.368Z,18.55
2018-04-14T09:45:34.501Z,18.58
2018-04-14T09:46:34.629Z,18.46
2018-04-14T09:47:34.700Z,18.57
2018-04-14T09:48:34.804Z,18.46
2018-04-14T09:49:34.893Z,18.55
2018-04-14T09:50:34.980Z,18.67
2018-04-14T09:51:35.089Z,18.58
2018-04-14T09:52:35.194Z,18.68
2018-04-14T09:53:35.328Z,18.77
2018-04-14T09:54:35.427Z,18.82
2018-04-14T09:55:35.528Z,19.05
2018-04-14T09:56:35.620Z,19.13
2018-04-14T09:57:35.743Z,19.21
2018-04-14T09:58:35.835Z,19.17
2018-04-14T09:59:36.045Z,19.35
2018-04-14T10:00:36.014Z,19.54
2018-04-14T10:01:36.157Z,19.57
2018-04-14T10:02:36.436Z,19.72
2018-04-14T10:03:36.411Z,19.55
2018-04-14T10:04:36.528Z,19.50
2018-04-14T10:05:36.613Z,19.57
2018-04-14T10:06:36.734Z,19.36
2018-04-14T10:07:36.829Z,19.63
2018-04-14T10:08:36.950Z,19.60
2018-04-14T10:09:37.052Z,19.61
2018-04-14T10:10:37.182Z,19.58
2018-04-14T10:11:37.280Z,19.68
2018-04-14T10:12:37.419Z,19.75
2018-04-14T10:13:37.514Z,19.63
2018-04-14T10:14:37.622Z,19.68
2018-04-14T10:15:37.788Z,19.65
2018-04-14T10:16:37.789Z,19.43
2018-04-14T10:17:37.888Z,19.35
2018-04-14T10:18:37.991Z,19.25
2018-04-14T10:19:38.092Z,19.35
2018-04-14T10:20:38.197Z,19.40
2018-04-14T10:21:38.277Z,19.50
2018-04-14T10:22:38.384Z,19.43
2018-04-14T10:23:38.478Z,19.36
2018-04-14T10:24:38.585Z,19.17
2018-04-14T10:25:38.689Z,19.25
2018-04-14T10:26:38.789Z,19.01
2018-04-14T10:27:38.932Z,19.10
2018-04-14T10:28:39.057Z,19.06
2018-04-14T10:29:39.183Z,19.05
2018-04-14T10:30:39.287Z,18.86
2018-04-14T10:31:39.388Z,18.83
2018-04-14T10:32:39.485Z,18.68
2018-04-14T10:33:39.582Z,18.44
2018-04-14T10:34:39.683Z,18.37
2018-04-14T10:35:39.786Z,18.49
2018-04-14T10:36:39.880Z,18.68
2018-04-14T10:37:40.035Z,18.49
2018-04-14T10:38:40.080Z,18.70
2018-04-14T10:39:40.182Z,18.84
2018-04-14T10:40:40.282Z,19.08
2018-04-14T10:41:40.377Z,19.33
2018-04-14T10:42:40.487Z,19.42
2018-04-14T10:43:40.584Z,19.35
2018-04-14T10:44:40.682Z,19.55
2018-04-14T10:45:40.785Z,19.60
2018-04-14T10:46:40.884Z,19.76
2018-04-14T10:47:40.982Z,19.84
2018-04-14T10:48:41.082Z,19.88
2018-04-14T10:49:41.184Z,19.97
2018-04-14T10:50:41.282Z,20.06
2018-04-14T10:51:41.383Z,20.09
2018-04-14T10:52:41.481Z,20.13
2018-04-14T10:53:41.586Z,20.47
2018-04-14T10:54:41.686Z,20.56
2018-04-14T10:55:41.797Z,20.56
2018-04-14T10:56:41.891Z,20.80
2018-04-14T10:57:41.989Z,20.86
2018-04-14T10:58:42.091Z,20.93
2018-04-14T10:59:42.194Z,20.98
2018-04-14T11:00:42.292Z,21.06
2018-04-14T11:01:42.400Z,21.01
2018-04-14T11:02:42.499Z,20.89
2018-04-14T11:03:42.599Z,20.93
2018-04-14T11:04:42.701Z,21.17
2018-04-14T11:05:42.803Z,21.05
2018-04-14T11:06:42.903Z,21.14
2018-04-14T11:07:43.006Z,21.34
2018-04-14T11:08:43.107Z,21.23
2018-04-14T11:09:43.211Z,21.29
2018-04-14T11:10:43.312Z,21.51
2018-04-14T11:11:43.414Z,21.42
2018-04-14T11:12:43.513Z,21.54
2018-04-14T11:13:43.616Z,21.39
2018-04-14T11:14:43.720Z,21.50
2018-04-14T11:15:43.820Z,21.60
2018-04-14T11:16:43.958Z,21.24
2018-04-14T11:17:44.022Z,21.29
2018-04-14T11:18:44.126Z,21.04
2018-04-14T11:19:44.226Z,21.01
2018-04-14T11:20:44.330Z,20.90
2018-04-14T11:21:44.433Z,20.90
2018-04-14T11:22:44.534Z,21.04
2018-04-14T11:23:44.646Z,21.09
2018-04-14T11:24:44.738Z,20.90
2018-04-14T11:25:44.848Z,20.93
2018-04-14T11:26:44.944Z,20.83
2018-04-14T11:27:45.054Z,20.95
2018-04-14T11:28:45.158Z,21.04
2018-04-14T11:29:45.267Z,21.19
2018-04-14T11:30:45.360Z,21.38
2018-04-14T11:31:45.465Z,21.48
2018-04-14T11:32:45.564Z,21.50
2018-04-14T11:33:45.664Z,21.44
2018-04-14T11:34:45.766Z,21.05
2018-04-14T11:35:45.868Z,21.08
2018-04-14T11:36:45.970Z,20.84
2018-04-14T11:37:46.072Z,20.66
2018-04-14T11:38:46.167Z,20.65
2018-04-14T11:39:46.265Z,20.43
2018-04-14T11:40:46.366Z,20.46
2018-04-14T11:41:46.467Z,20.47
2018-04-14T11:42:46.567Z,20.09
2018-04-14T11:43:46.671Z,20.20
2018-04-14T11:44:46.774Z,20.23
2018-04-14T11:45:46.871Z,20.24
2018-04-14T11:46:46.971Z,20.25
2018-04-14T11:47:47.072Z,20.28
2018-04-14T11:48:47.173Z,20.13
2018-04-14T11:49:47.272Z,20.09
2018-04-14T11:50:47.375Z,20.20
2018-04-14T11:51:47.480Z,20.24
2018-04-14T11:52:47.577Z,20.21
2018-04-14T11:53:47.678Z,20.25
2018-04-14T11:54:47.777Z,20.31
2018-04-14T11:55:47.878Z,20.21
2018-04-14T11:56:47.978Z,20.24
2018-04-14T11:57:48.083Z,20.41
2018-04-14T11:58:48.185Z,20.53
2018-04-14T11:59:48.289Z,20.65
2018-04-14T12:00:48.385Z,20.58
2018-04-14T12:01:48.485Z,20.68
2018-04-14T12:02:48.591Z,20.54
2018-04-14T12:03:48.691Z,20.58
2018-04-14T12:04:48.793Z,20.46
2018-04-14T12:05:48.885Z,20.43
2018-04-14T12:06:48.996Z,20.35
2018-04-14T12:07:49.098Z,20.51
2018-04-14T12:08:49.200Z,20.54
2018-04-14T12:09:49.303Z,20.58
2018-04-14T12:10:49.405Z,20.23
2018-04-14T12:11:49.503Z,20.13
2018-04-14T12:12:49.603Z,20.28
2018-04-14T12:13:49.704Z,20.24
2018-04-14T12:14:49.809Z,20.12
2018-04-14T12:15:49.906Z,20.13
2018-04-14T12:16:50.006Z,20.06
2018-04-14T12:17:50.106Z,20.05
2018-04-14T12:18:50.214Z,20.10
2018-04-14T12:19:50.310Z,20.10
2018-04-14T12:20:50.412Z,19.97
2018-04-14T12:21:50.511Z,20.08
2018-04-14T12:22:50.612Z,20.16
2018-04-14T12:23:50.716Z,20.25
2018-04-14T12:24:50.817Z,20.35
2018-04-14T12:25:50.916Z,20.28
2018-04-14T12:26:51.017Z,20.27
2018-04-14T12:27:51.122Z,20.35
2018-04-14T12:28:51.221Z,20.31
2018-04-14T12:29:51.321Z,20.30
2018-04-14T12:30:51.422Z,20.20
2018-04-14T12:31:51.524Z,20.24
2018-04-14T12:32:51.623Z,20.15
2018-04-14T12:33:51.723Z,20.10
2018-04-14T12:34:51.828Z,20.09
2018-04-14T12:35:51.937Z,20.08
2018-04-14T12:36:52.036Z,20.13
2018-04-14T12:37:52.138Z,20.13
2018-04-14T12:38:52.293Z,20.00
2018-04-14T12:39:52.340Z,19.90
2018-04-14T12:40:52.444Z,19.97
2018-04-14T12:41:52.547Z,19.94
2018-04-14T12:42:52.644Z,19.88
2018-04-14T12:43:52.744Z,19.87
2018-04-14T12:44:52.841Z,19.86
2018-04-14T12:45:52.950Z,19.94
2018-04-14T12:46:53.046Z,19.97
2018-04-14T12:47:53.150Z,19.94
2018-04-14T12:48:53.250Z,19.97
2018-04-14T12:49:53.672Z,19.94
2018-04-14T12:50:53.427Z,19.94
2018-04-14T12:51:53.552Z,19.91
2018-04-14T12:52:53.666Z,19.93
2018-04-14T12:53:53.925Z,19.73
2018-04-14T12:54:53.916Z,19.80
2018-04-14T12:55:54.096Z,20.05
2018-04-14T12:56:54.164Z,20.08
2018-04-14T12:57:54.211Z,20.23
2018-04-14T12:58:54.332Z,20.28